Time;durP1;ratioP1;P1;durP2;ratioP2;P2;SDS_P1;SDS_P2;PMS_P1;PMS_P2;Temp;Humidity;BMP_temperature;BMP_pressure;BME280_temperature;BME280_humidity;BME280_pressure;Samples;Min_cycle;Max_cycle;Signal;HPM_P1;HPM_P2
2022/07/24 00:01:38;;;;;;;;;17.75;17.50;;;;;24.38;49.56;101292.88;5013655;28;45693;-85
2022/07/24 00:04:04;;;;;;;;;20.50;17.00;;;;;24.36;49.93;101286.84;4996554;28;48127;-88
2022/07/24 00:06:30;;;;;;;;;17.50;15.50;;;;;24.31;50.02;101283.88;5013686;28;45615;-84
2022/07/24 00:08:55;;;;;;;;;18.00;16.75;;;;;24.30;49.73;101284.91;5011175;28;45754;-84
2022/07/24 00:11:21;;;;;;;;;17.50;15.50;;;;;24.26;50.10;101291.63;5014676;28;45754;-87
2022/07/24 00:13:46;;;;;;;;;17.00;15.50;;;;;24.28;50.07;101292.31;5008128;28;47516;-83
2022/07/24 00:16:12;;;;;;;;;16.00;15.00;;;;;24.19;50.05;101285.34;5006110;28;46129;-83
2022/07/24 00:18:37;;;;;;;;;18.00;15.50;;;;;24.16;50.26;101286.50;5014324;28;45647;-85
2022/07/24 00:21:06;;;;;;;;;16.75;15.00;;;;;24.16;50.33;101291.03;5014806;28;45697;-87
2022/07/24 00:23:31;;;;;;;;;17.75;15.50;;;;;24.15;50.12;101295.56;5013096;28;46680;-86
2022/07/24 00:25:57;;;;;;;;;14.75;14.25;;;;;24.11;50.60;101294.25;5013302;28;45872;-82
2022/07/24 00:28:23;;;;;;;;;16.75;14.50;;;;;24.04;50.28;101279.91;5013182;28;46094;-81
2022/07/24 00:30:48;;;;;;;;;14.25;13.25;;;;;23.95;50.94;101274.81;5012949;28;45946;-80
2022/07/24 00:33:14;;;;;;;;;16.00;15.25;;;;;23.99;50.88;101278.78;5011435;28;45722;-83
2022/07/24 00:35:39;;;;;;;;;16.25;15.25;;;;;23.96;50.68;101268.44;5013289;28;46210;-82
2022/07/24 00:38:05;;;;;;;;;16.00;15.00;;;;;23.96;50.77;101273.81;5012565;28;45778;-84
2022/07/24 00:40:31;;;;;;;;;16.00;15.50;;;;;23.96;50.54;101257.75;5012998;28;45962;-86
2022/07/24 00:42:57;;;;;;;;;15.75;14.00;;;;;23.92;50.75;101251.06;5012256;28;45991;-81
2022/07/24 00:45:24;;;;;;;;;15.00;15.00;;;;;23.88;51.19;101249.75;4994728;28;47116;-85
2022/07/24 00:47:50;;;;;;;;;17.50;17.25;;;;;23.89;51.45;101248.75;5011250;28;46457;-83
2022/07/24 00:50:15;;;;;;;;;17.25;16.00;;;;;23.79;51.08;101231.09;4995730;28;45964;-86
2022/07/24 00:52:42;;;;;;;;;18.75;16.50;;;;;23.81;51.28;101238.94;5012332;28;46469;-88
2022/07/24 00:55:08;;;;;;;;;16.75;15.50;;;;;23.86;51.33;101238.41;5012510;28;45988;-81
2022/07/24 00:57:34;;;;;;;;;15.25;14.50;;;;;23.87;51.17;101234.72;5013306;28;45835;-82
2022/07/24 00:59:59;;;;;;;;;17.50;16.75;;;;;23.82;51.50;101232.56;5011247;28;45801;-85
2022/07/24 01:02:24;;;;;;;;;16.50;15.50;;;;;23.87;51.24;101226.69;5012061;28;46278;-84
2022/07/24 01:04:50;;;;;;;;;20.00;18.25;;;;;23.83;51.07;101221.69;5012663;28;45783;-83
2022/07/24 01:07:16;;;;;;;;;15.00;14.00;;;;;23.86;50.87;101225.84;5015273;28;45528;-82
2022/07/24 01:09:42;;;;;;;;;15.75;15.00;;;;;23.86;50.87;101236.56;5020140;28;45809;-86
2022/07/24 01:12:08;;;;;;;;;16.50;15.50;;;;;23.83;51.15;101221.69;5020397;28;45748;-87
2022/07/24 01:14:34;;;;;;;;;15.50;14.75;;;;;23.78;50.67;101218.72;5016660;28;46032;-88
2022/07/24 01:17:00;;;;;;;;;16.00;13.75;;;;;23.86;51.23;101233.06;5015733;28;45537;-85
2022/07/24 01:19:25;;;;;;;;;15.00;13.75;;;;;23.78;50.76;101223.25;5015083;28;45895;-87
2022/07/24 01:21:53;;;;;;;;;18.00;15.00;;;;;23.89;50.92;101238.06;5015218;28;45844;-85
2022/07/24 01:24:20;;;;;;;;;15.50;15.50;;;;;23.87;51.33;101248.09;5016652;28;46185;-82
2022/07/24 01:26:46;;;;;;;;;17.00;14.50;;;;;23.83;51.14;101239.59;5016878;28;45761;-86
2022/07/24 01:29:12;;;;;;;;;16.25;15.00;;;;;23.79;51.08;101236.47;5016213;28;45545;-87
2022/07/24 01:31:38;;;;;;;;;14.25;13.00;;;;;23.81;51.25;101241.59;5014331;28;45856;-86
2022/07/24 01:34:04;;;;;;;;;15.50;14.00;;;;;23.87;51.07;101242.75;5013474;28;46108;-86
2022/07/24 01:36:29;;;;;;;;;16.00;12.75;;;;;23.80;50.96;101234.63;5013034;28;47403;-88
2022/07/24 01:38:55;;;;;;;;;17.50;15.50;;;;;23.82;51.21;101245.97;5013278;28;46101;-77
2022/07/24 01:41:20;;;;;;;;;16.00;15.00;;;;;23.75;50.98;101228.97;5010802;28;46866;-81
2022/07/24 01:43:46;;;;;;;;;17.25;13.75;;;;;23.76;51.04;101231.44;5011938;28;46085;-85
2022/07/24 01:46:11;;;;;;;;;18.75;17.25;;;;;23.79;51.51;101243.66;5013043;28;46268;-88
2022/07/24 01:48:38;;;;;;;;;15.50;15.25;;;;;23.79;50.90;101244.50;4999588;28;46891;-87
2022/07/24 01:51:04;;;;;;;;;14.00;14.00;;;;;23.76;51.17;101233.28;5011669;28;45698;-84
2022/07/24 01:53:30;;;;;;;;;15.50;15.00;;;;;23.76;51.29;101230.63;5013291;28;46164;-84
2022/07/24 01:55:55;;;;;;;;;14.00;14.00;;;;;23.78;50.96;101236.63;5011512;28;45700;-85
2022/07/24 01:58:21;;;;;;;;;14.25;13.00;;;;;23.78;50.75;101234.78;5012300;28;45753;-86
2022/07/24 02:00:46;;;;;;;;;16.00;13.75;;;;;23.78;51.22;101233.97;5011973;28;45765;-84
2022/07/24 02:03:12;;;;;;;;;13.00;12.25;;;;;23.74;51.15;101228.13;5012001;28;45716;-86
2022/07/24 02:05:37;;;;;;;;;13.50;12.25;;;;;23.76;51.14;101228.78;5011633;28;46225;-87
2022/07/24 02:08:03;;;;;;;;;16.50;14.25;;;;;23.76;51.50;101223.41;5012034;28;45888;-85
2022/07/24 02:10:29;;;;;;;;;15.75;14.75;;;;;23.74;51.23;101224.63;5012583;28;46369;-85
2022/07/24 02:12:55;;;;;;;;;17.25;16.25;;;;;23.73;51.54;101225.63;5011600;28;45667;-86
2022/07/24 02:15:21;;;;;;;;;16.00;14.75;;;;;23.74;51.06;101220.09;5012144;28;45725;-88
2022/07/24 02:17:51;;;;;;;;;13.50;13.50;;;;;23.67;51.01;101210.28;5013810;28;45809;-88
2022/07/24 02:20:17;;;;;;;;;14.25;14.00;;;;;23.68;51.20;101211.97;5013084;28;45761;-86
2022/07/24 02:22:43;;;;;;;;;14.00;13.25;;;;;23.71;51.15;101216.94;5012691;28;46913;-84
2022/07/24 02:25:10;;;;;;;;;16.50;13.50;;;;;23.73;51.02;101217.59;5013016;28;45715;-86
2022/07/24 02:27:35;;;;;;;;;13.00;12.00;;;;;23.72;50.87;101211.41;5015001;28;45678;-86
2022/07/24 02:30:03;;;;;;;;;16.00;15.50;;;;;23.67;51.34;101202.25;5013724;28;45677;-87
2022/07/24 02:32:28;;;;;;;;;13.00;13.00;;;;;23.67;51.18;101202.25;5014840;28;46091;-84
2022/07/24 02:34:53;;;;;;;;;14.50;13.50;;;;;23.65;51.52;101199.75;5013932;28;45988;-82
2022/07/24 02:37:19;;;;;;;;;16.75;15.25;;;;;23.59;51.78;101188.97;5017338;28;45792;-85
2022/07/24 02:39:44;;;;;;;;;14.25;12.50;;;;;23.63;51.54;101200.97;5018137;28;46804;-85
2022/07/24 02:42:10;;;;;;;;;12.75;12.25;;;;;23.66;52.05;101205.94;5017669;28;45833;-83
2022/07/24 02:44:35;;;;;;;;;13.75;12.25;;;;;23.57;51.58;101191.81;5018109;28;45807;-86
2022/07/24 02:47:00;;;;;;;;;14.50;12.25;;;;;23.60;51.95;101196.78;5017808;28;45594;-83
2022/07/24 02:49:26;;;;;;;;;12.50;11.00;;;;;23.55;51.30;101190.31;5017565;28;46986;-82
2022/07/24 02:51:51;;;;;;;;;15.25;14.00;;;;;23.55;51.05;101193.00;5017979;28;46407;-83
2022/07/24 02:54:17;;;;;;;;;12.50;12.50;;;;;23.50;51.61;101185.50;5015667;28;45890;-83
2022/07/24 02:56:43;;;;;;;;;14.50;12.25;;;;;23.47;51.43;101179.69;5014989;28;46218;-83
2022/07/24 02:59:08;;;;;;;;;14.75;12.50;;;;;23.44;51.50;101175.47;5008323;28;47835;-86
2022/07/24 03:01:34;;;;;;;;;12.00;12.00;;;;;23.44;51.04;101184.34;5019981;28;45744;-82
2022/07/24 03:03:59;;;;;;;;;12.00;11.00;;;;;23.41;51.31;101186.56;5016051;28;45682;-83
2022/07/24 03:06:24;;;;;;;;;11.00;10.00;;;;;23.37;51.67;101180.72;5018624;28;45730;-82
2022/07/24 03:08:50;;;;;;;;;13.75;13.00;;;;;23.34;51.31;101169.53;5001614;28;47176;-79
2022/07/24 03:11:15;;;;;;;;;10.00;10.00;;;;;23.37;51.04;101174.56;5023165;28;46019;-81
2022/07/24 03:13:41;;;;;;;;;13.25;11.00;;;;;23.31;51.10;101162.72;5028175;28;45711;-82
2022/07/24 03:16:06;;;;;;;;;9.50;8.75;;;;;23.32;51.13;101169.72;5020255;28;45642;-83
2022/07/24 03:18:32;;;;;;;;;13.25;12.00;;;;;23.32;51.51;101160.88;5017636;28;45777;-79
2022/07/24 03:20:57;;;;;;;;;11.75;11.50;;;;;23.34;51.52;101172.22;5015785;28;46509;-83
2022/07/24 03:23:22;;;;;;;;;13.50;11.50;;;;;23.30;51.11;101169.06;4998388;28;45919;-81
2022/07/24 03:25:48;;;;;;;;;14.25;12.00;;;;;23.28;51.54;101160.38;5015491;28;46403;-79
2022/07/24 03:28:13;;;;;;;;;11.00;10.75;;;;;23.31;51.55;101169.91;5016772;28;45697;-78
2022/07/24 03:30:39;;;;;;;;;11.75;11.75;;;;;23.26;51.15;101161.59;5020047;28;46293;-86
2022/07/24 03:33:04;;;;;;;;;12.75;11.75;;;;;23.27;51.24;101165.91;5000655;28;45851;-79
2022/07/24 03:35:29;;;;;;;;;12.50;11.50;;;;;23.23;51.60;101162.75;5023177;28;45822;-85
2022/07/24 03:37:55;;;;;;;;;14.75;12.50;;;;;23.32;51.40;101171.59;5002388;28;46860;-83
2022/07/24 03:40:20;;;;;;;;;13.25;13.00;;;;;23.29;51.11;101179.94;5014524;28;45821;-84
2022/07/24 03:42:46;;;;;;;;;16.50;11.50;;;;;23.29;51.11;101177.28;4996621;28;45707;-85
2022/07/24 03:45:11;;;;;;;;;11.75;11.75;;;;;23.31;51.54;101177.94;5013747;28;45790;-84
2022/07/24 03:47:37;;;;;;;;;14.00;14.00;;;;;23.25;52.05;101175.97;5010139;28;46589;-81
2022/07/24 03:50:03;;;;;;;;;12.25;12.00;;;;;23.25;51.64;101171.44;5011635;28;46405;-82
2022/07/24 03:52:28;;;;;;;;;12.50;12.00;;;;;23.24;51.16;101168.94;5011236;28;45827;-79
2022/07/24 03:54:55;;;;;;;;;13.25;13.00;;;;;23.23;51.96;101176.13;5012602;28;45752;-76
2022/07/24 03:57:21;;;;;;;;;12.00;11.00;;;;;23.21;52.18;101175.47;5003348;28;46029;-84
2022/07/24 03:59:46;;;;;;;;;19.50;15.50;;;;;23.14;52.50;101163.00;5011253;28;46689;-83
2022/07/24 04:02:12;;;;;;;;;15.50;14.50;;;;;23.17;51.84;101179.50;4993773;28;45746;-85
2022/07/24 04:04:37;;;;;;;;;11.50;10.75;;;;;23.11;51.77;101174.03;4994003;28;45765;-84
2022/07/24 04:07:03;;;;;;;;;15.00;12.25;;;;;23.11;51.92;101177.53;5012153;28;46867;-82
2022/07/24 04:09:28;;;;;;;;;13.25;11.25;;;;;23.09;51.88;101178.75;5011412;28;46269;-83
2022/07/24 04:11:53;;;;;;;;;13.50;12.00;;;;;23.06;52.09;101173.72;5011621;28;46891;-84
2022/07/24 04:14:19;;;;;;;;;11.50;10.00;;;;;22.96;51.75;101172.13;5011004;28;45959;-85
2022/07/24 04:16:45;;;;;;;;;14.50;9.75;;;;;23.02;52.18;101181.28;5010495;28;45654;-84
2022/07/24 04:19:10;;;;;;;;;13.00;12.50;;;;;22.94;52.22;101171.44;5011929;28;47147;-84
2022/07/24 04:21:35;;;;;;;;;12.00;11.75;;;;;23.01;51.92;101185.78;5012122;28;45820;-87
2022/07/24 04:24:01;;;;;;;;;12.50;10.00;;;;;22.96;52.12;101181.97;5007482;28;45780;-84
2022/07/24 04:26:26;;;;;;;;;11.50;10.75;;;;;22.98;52.13;101183.47;5020678;28;46716;-85
2022/07/24 04:28:52;;;;;;;;;13.00;13.00;;;;;23.05;51.72;101186.25;5014319;28;45918;-86
2022/07/24 04:31:17;;;;;;;;;13.25;12.25;;;;;23.02;51.97;101182.13;5006751;28;45548;-84
2022/07/24 04:33:43;;;;;;;;;12.00;11.50;;;;;23.04;52.23;101178.44;5013196;28;45532;-84
2022/07/24 04:36:09;;;;;;;;;14.50;13.50;;;;;23.04;51.97;101179.28;5012511;28;46542;-85
2022/07/24 04:38:34;;;;;;;;;12.25;10.25;;;;;23.01;51.51;101171.59;5010570;28;45808;-81
2022/07/24 04:41:00;;;;;;;;;13.50;12.25;;;;;23.04;52.02;101181.94;5011991;28;46239;-84
2022/07/24 04:43:26;;;;;;;;;11.50;11.50;;;;;23.09;52.25;101186.75;5009619;28;45710;-81
2022/07/24 04:45:52;;;;;;;;;13.00;11.75;;;;;23.05;52.21;101175.56;5011009;28;45851;-86
2022/07/24 04:48:17;;;;;;;;;15.25;14.00;;;;;23.02;52.25;101176.78;5011463;28;45912;-85
2022/07/24 04:50:43;;;;;;;;;16.25;16.25;;;;;23.05;52.06;101169.41;5011706;28;45942;-86
2022/07/24 04:53:08;;;;;;;;;12.75;12.00;;;;;23.01;52.45;101163.56;5010890;28;45850;-83
2022/07/24 04:55:34;;;;;;;;;15.00;12.50;;;;;23.06;51.91;101169.22;5009831;28;46439;-83
2022/07/24 04:57:59;;;;;;;;;11.50;11.25;;;;;23.13;52.26;101186.22;5010650;28;46111;-85
2022/07/24 05:00:25;;;;;;;;;14.50;13.00;;;;;23.15;52.01;101178.03;5010729;28;45887;-79
2022/07/24 05:02:50;;;;;;;;;15.00;14.00;;;;;23.15;52.49;101178.88;5011330;28;45852;-80
2022/07/24 05:05:15;;;;;;;;;16.50;15.25;;;;;23.15;52.63;101170.84;5012741;28;46782;-80
2022/07/24 05:07:41;;;;;;;;;15.25;15.25;;;;;23.12;52.28;101165.84;5009120;28;45713;-85
2022/07/24 05:10:08;;;;;;;;;16.00;14.00;;;;;23.17;52.30;101176.84;4992763;28;45760;-85
2022/07/24 05:12:33;;;;;;;;;13.25;12.00;;;;;23.11;52.17;101168.69;5010425;28;45975;-84
2022/07/24 05:14:59;;;;;;;;;15.25;14.25;;;;;23.10;51.80;101165.22;5011152;28;46813;-85
2022/07/24 05:17:24;;;;;;;;;15.00;12.25;;;;;23.20;52.41;101171.16;5011556;28;45602;-85
2022/07/24 05:19:50;;;;;;;;;14.75;13.75;;;;;23.19;52.26;101182.84;5011269;28;46292;-85
2022/07/24 05:22:15;;;;;;;;;12.75;12.00;;;;;23.18;52.24;101183.03;5013163;28;45964;-82
2022/07/24 05:24:40;;;;;;;;;12.75;12.75;;;;;23.18;52.41;101177.69;4994243;28;47527;-81
2022/07/24 05:27:06;;;;;;;;;14.00;12.50;;;;;23.22;52.25;101177.13;5011163;28;46216;-83
2022/07/24 05:29:31;;;;;;;;;11.50;11.25;;;;;23.18;52.71;101175.00;5011798;28;45663;-84
2022/07/24 05:31:57;;;;;;;;;15.75;14.75;;;;;23.27;51.84;101184.63;5010688;28;45708;-81
2022/07/24 05:34:22;;;;;;;;;16.00;13.75;;;;;23.26;52.07;101172.28;4990485;28;46259;-84
2022/07/24 05:36:48;;;;;;;;;14.50;12.75;;;;;23.25;52.49;101173.28;5010759;28;47100;-84
2022/07/24 05:39:14;;;;;;;;;14.75;13.00;;;;;23.28;51.97;101176.44;5010547;28;45808;-83
2022/07/24 05:41:39;;;;;;;;;13.25;12.25;;;;;23.26;51.80;101167.78;5009819;28;45880;-83
2022/07/24 05:44:04;;;;;;;;;12.75;12.75;;;;;23.28;52.06;101168.41;5009536;28;45752;-83
2022/07/24 05:46:30;;;;;;;;;16.25;13.50;;;;;23.31;51.68;101170.75;5001718;28;45900;-80
2022/07/24 05:48:55;;;;;;;;;13.75;12.75;;;;;23.37;51.74;101175.34;4992615;28;45798;-83
2022/07/24 05:51:21;;;;;;;;;14.75;14.75;;;;;23.37;52.28;101169.19;5010232;28;45731;-79
2022/07/24 05:53:46;;;;;;;;;12.25;11.25;;;;;23.39;51.59;101173.34;5009638;28;45839;-83
2022/07/24 05:56:12;;;;;;;;;15.00;13.75;;;;;23.45;52.22;101177.16;5009613;28;45825;-83
2022/07/24 05:58:37;;;;;;;;;14.00;13.00;;;;;23.49;52.10;101177.66;5010182;28;45883;-80
2022/07/24 06:01:02;;;;;;;;;13.25;12.00;;;;;23.41;51.62;101162.47;5010494;28;45752;-84
2022/07/24 06:03:28;;;;;;;;;15.75;14.25;;;;;23.52;51.66;101179.97;4991418;28;46374;-81
2022/07/24 06:05:53;;;;;;;;;15.00;13.75;;;;;23.42;51.80;101164.97;5008268;28;45951;-78
2022/07/24 06:08:19;;;;;;;;;15.75;13.75;;;;;23.48;51.43;101165.31;5010046;28;45979;-79
2022/07/24 06:10:44;;;;;;;;;14.00;13.00;;;;;23.54;51.83;101170.75;5009012;28;45750;-81
2022/07/24 06:13:10;;;;;;;;;12.25;10.50;;;;;23.50;51.41;101160.59;5011824;28;45951;-83
2022/07/24 06:15:35;;;;;;;;;13.75;12.75;;;;;23.58;51.62;101169.41;5011617;28;46032;-84
2022/07/24 06:18:01;;;;;;;;;11.00;9.75;;;;;23.58;51.66;101165.91;5014130;28;45883;-85
2022/07/24 06:20:26;;;;;;;;;14.00;13.00;;;;;23.63;51.74;101168.84;5015817;28;45754;-86
2022/07/24 06:22:53;;;;;;;;;12.50;12.00;;;;;23.65;51.75;101167.66;4997484;28;47016;-87
2022/07/24 06:25:18;;;;;;;;;15.25;13.50;;;;;23.62;51.47;101160.00;5015552;28;47012;-83
2022/07/24 06:28:04;;;;;;;;;14.25;13.00;;;;;23.68;52.14;101167.31;5003397;28;45770;-82
2022/07/24 06:30:32;;;;;;;;;16.00;14.75;;;;;23.69;52.04;101171.66;5003239;28;45754;-84
2022/07/24 06:33:01;;;;;;;;;13.75;12.25;;;;;23.61;52.07;101150.31;5016797;28;46630;-83
2022/07/24 06:35:35;;;;;;;;;12.75;11.75;;;;;23.68;51.86;101163.78;5022747;28;46226;-87
2022/07/24 06:38:00;;;;;;;;;14.75;13.50;;;;;23.69;52.05;101150.25;5017970;28;46095;-88
2022/07/24 06:40:27;;;;;;;;;18.75;16.25;;;;;23.74;52.12;101155.06;5014596;28;45906;-84
2022/07/24 06:42:52;;;;;;;;;17.50;15.75;;;;;23.78;52.43;101154.50;5014332;28;46371;-85
2022/07/24 06:45:18;;;;;;;;;15.25;14.75;;;;;23.81;52.26;101151.44;5016114;28;46194;-85
2022/07/24 06:47:44;;;;;;;;;18.25;15.00;;;;;23.83;52.28;101156.63;5016395;28;46229;-84
2022/07/24 06:50:11;;;;;;;;;14.25;13.25;;;;;23.85;52.00;101151.94;5015017;28;45657;-87
2022/07/24 06:52:36;;;;;;;;;17.50;15.00;;;;;23.85;52.26;101146.59;5011319;28;46603;-84
2022/07/24 06:55:02;;;;;;;;;20.00;17.00;;;;;23.84;52.45;101144.91;5015730;28;46146;-86
2022/07/24 06:57:27;;;;;;;;;16.75;15.00;;;;;23.93;51.96;101159.88;5012875;28;46017;-87
2022/07/24 06:59:58;;;;;;;;;17.50;16.00;;;;;23.86;51.83;101132.16;5015276;28;45867;-85
2022/07/24 07:02:24;;;;;;;;;19.75;17.00;;;;;23.95;52.27;101151.66;5007436;28;47066;-85
2022/07/24 07:04:49;;;;;;;;;18.50;16.00;;;;;23.93;52.11;101137.63;5017049;28;45684;-87
2022/07/24 07:07:16;;;;;;;;;33.75;31.25;;;;;24.06;51.89;101157.41;5014586;28;45887;-83
2022/07/24 07:09:42;;;;;;;;;27.50;24.25;;;;;24.06;52.41;101149.38;5017227;28;45513;-86
2022/07/24 07:12:08;;;;;;;;;18.50;16.25;;;;;24.08;52.03;101157.19;5014473;28;45757;-83
2022/07/24 07:14:34;;;;;;;;;21.25;17.75;;;;;24.14;52.29;101151.94;5017776;28;46279;-85
2022/07/24 07:17:00;;;;;;;;;16.50;15.75;;;;;24.17;52.04;101156.13;5019035;28;46061;-85
2022/07/24 07:19:25;;;;;;;;;19.50;17.75;;;;;24.13;52.08;101152.16;4995878;28;46028;-87
2022/07/24 07:21:52;;;;;;;;;18.00;16.25;;;;;24.22;51.65;101162.63;5017941;28;45844;-80
2022/07/24 07:24:18;;;;;;;;;20.50;16.75;;;;;24.28;52.12;101160.22;5018289;28;46517;-86
2022/07/24 07:26:43;;;;;;;;;18.00;16.75;;;;;24.31;52.10;101167.88;5017075;28;45748;-82
2022/07/24 07:29:09;;;;;;;;;17.25;15.00;;;;;24.26;51.58;101152.34;5016937;28;45862;-82
2022/07/24 07:31:34;;;;;;;;;18.25;17.50;;;;;24.33;51.52;101158.66;5011866;28;45811;-80
2022/07/24 07:33:59;;;;;;;;;20.75;19.50;;;;;24.37;51.75;101167.13;5003885;28;46348;-80
2022/07/24 07:36:25;;;;;;;;;15.25;14.25;;;;;24.42;52.20;101160.22;5005574;28;45959;-79
2022/07/24 07:38:51;;;;;;;;;18.50;17.00;;;;;24.44;51.95;101152.81;5010012;28;45768;-77
2022/07/24 07:41:19;;;;;;;;;17.75;16.00;;;;;24.46;51.65;101144.59;5006276;28;46506;-78
2022/07/24 07:43:45;;;;;;;;;22.00;18.25;;;;;24.52;51.91;101157.25;5009780;28;45869;-78
2022/07/24 07:46:10;;;;;;;;;19.00;17.75;;;;;24.53;52.20;101146.34;5009838;28;45851;-79
2022/07/24 07:48:36;;;;;;;;;20.00;19.25;;;;;24.58;51.47;101153.81;5009589;28;46917;-80
2022/07/24 07:51:01;;;;;;;;;21.25;19.75;;;;;24.58;51.82;101145.78;5011226;28;45976;-78
2022/07/24 07:53:26;;;;;;;;;19.25;18.25;;;;;24.64;51.47;101155.75;5013298;28;45674;-78
2022/07/24 07:55:52;;;;;;;;;20.25;19.25;;;;;24.67;52.09;101155.38;5009623;28;45900;-78
2022/07/24 07:58:22;;;;;;;;;21.00;18.00;;;;;24.70;51.74;101146.97;5011365;28;45750;-78
2022/07/24 08:00:47;;;;;;;;;19.75;17.25;;;;;24.74;51.87;101145.56;5010262;28;46404;-80
2022/07/24 08:03:13;;;;;;;;;23.50;20.50;;;;;24.77;51.66;101141.69;5010035;28;45960;-80
2022/07/24 08:05:38;;;;;;;;;18.25;17.00;;;;;24.79;51.82;101128.91;5010142;28;45996;-79
2022/07/24 08:08:04;;;;;;;;;19.50;17.75;;;;;24.81;51.77;101141.13;5008521;28;45832;-81
2022/07/24 08:10:30;;;;;;;;;18.25;16.50;;;;;24.90;51.75;101139.19;5009933;28;46264;-79
2022/07/24 08:12:55;;;;;;;;;19.00;17.00;;;;;24.94;51.67;101141.28;5006869;28;46259;-79
2022/07/24 08:15:20;;;;;;;;;17.00;17.00;;;;;24.95;51.67;101132.22;5009635;28;46555;-78
2022/07/24 08:17:53;;;;;;;;;16.00;15.50;;;;;25.02;51.44;101133.13;5010926;28;45731;-80
2022/07/24 08:20:19;;;;;;;;;17.50;16.50;;;;;25.06;51.23;101128.22;5009902;28;45673;-78
2022/07/24 08:22:45;;;;;;;;;18.25;17.00;;;;;25.11;51.22;101130.31;5008646;28;46375;-79
2022/07/24 08:25:11;;;;;;;;;13.75;13.25;;;;;25.14;51.16;101130.78;5010504;28;46152;-78
2022/07/24 08:27:37;;;;;;;;;17.75;17.00;;;;;25.18;50.86;101128.53;5008004;28;45957;-79
2022/07/24 08:30:05;;;;;;;;;16.75;15.25;;;;;25.19;50.99;101122.16;5010151;28;47055;-79
2022/07/24 08:32:30;;;;;;;;;15.75;14.75;;;;;25.23;50.75;101121.59;5010566;28;46303;-79
2022/07/24 08:34:55;;;;;;;;;14.50;14.50;;;;;25.31;50.77;101128.69;5008430;28;45687;-78
2022/07/24 08:37:21;;;;;;;;;16.00;15.00;;;;;25.33;50.38;101130.13;5012390;28;45769;-79
2022/07/24 08:39:46;;;;;;;;;17.25;15.00;;;;;25.35;49.95;101128.09;5008283;28;45837;-78
2022/07/24 08:42:12;;;;;;;;;16.50;15.75;;;;;25.38;49.97;101118.81;5008385;28;45763;-78
2022/07/24 08:44:38;;;;;;;;;15.50;14.50;;;;;25.44;50.01;101120.72;5009649;28;45824;-81
2022/07/24 08:47:08;;;;;;;;;14.75;14.25;;;;;25.47;49.87;101123.88;5011499;28;45917;-79
2022/07/24 08:49:35;;;;;;;;;15.25;13.25;;;;;25.49;49.86;101113.75;5011648;28;45696;-80
2022/07/24 08:52:03;;;;;;;;;14.00;13.75;;;;;25.54;49.41;101112.34;5012973;28;45812;-83
2022/07/24 08:54:28;;;;;;;;;11.00;11.00;;;;;25.56;48.85;101104.97;5013430;28;46974;-77
2022/07/24 08:56:54;;;;;;;;;18.25;15.75;;;;;25.58;48.88;101102.94;5016911;28;45753;-79
2022/07/24 08:59:21;;;;;;;;;13.50;12.75;;;;;25.63;48.76;101104.00;5016078;28;45606;-78
2022/07/24 09:01:48;;;;;;;;;10.50;10.00;;;;;25.69;48.44;101103.22;5015875;28;45818;-76
2022/07/24 09:04:31;;;;;;;;;12.50;12.00;;;;;25.74;48.33;101099.97;5015972;28;45693;-79
2022/07/24 09:06:58;;;;;;;;;13.50;12.00;;;;;25.79;48.36;101100.19;5013938;28;45751;-82
2022/07/24 09:09:23;;;;;;;;;12.00;12.00;;;;;25.81;48.07;101090.91;5016448;28;46352;-87
2022/07/24 09:11:48;;;;;;;;;15.00;13.75;;;;;25.88;47.96;101090.94;5012345;28;45753;-82
2022/07/24 09:14:32;;;;;;;;;14.00;12.50;;;;;25.86;47.56;101077.72;5011505;28;45842;-82
2022/07/24 09:17:08;;;;;;;;;11.00;10.00;;;;;25.98;47.02;101080.69;5014874;28;45595;-81
2022/07/24 09:19:51;;;;;;;;;10.50;10.25;;;;;26.05;46.46;101089.63;4998792;28;48236;-77
2022/07/24 09:22:34;;;;;;;;;9.50;9.50;;;;;26.09;45.77;101080.13;5009277;28;46532;-81
2022/07/24 09:25:05;;;;;;;;;11.25;11.25;;;;;26.12;45.50;101073.53;5013223;28;45647;-81
2022/07/24 09:27:32;;;;;;;;;13.25;12.00;;;;;26.17;45.01;101077.28;5013403;28;45647;-80
2022/07/24 09:29:58;;;;;;;;;11.00;9.75;;;;;26.20;45.09;101066.13;5013754;28;46011;-77
2022/07/24 09:32:24;;;;;;;;;10.00;8.50;;;;;26.26;45.41;101072.59;5015266;28;45990;-79
2022/07/24 09:34:52;;;;;;;;;12.00;11.00;;;;;26.30;44.64;101066.63;5015527;28;45633;-79
2022/07/24 09:37:18;;;;;;;;;8.25;7.25;;;;;26.36;44.38;101064.97;4997806;28;45905;-80
2022/07/24 09:39:44;;;;;;;;;11.00;10.00;;;;;26.43;44.09;101065.84;5013769;28;46563;-77
2022/07/24 09:42:10;;;;;;;;;9.75;9.50;;;;;26.50;43.89;101060.50;5016287;28;46685;-80
2022/07/24 09:44:36;;;;;;;;;10.00;10.00;;;;;26.56;43.83;101062.38;5016153;28;46153;-83
2022/07/24 09:47:07;;;;;;;;;10.25;9.50;;;;;26.63;43.54;101055.16;5017654;28;45559;-82
2022/07/24 09:49:34;;;;;;;;;10.25;10.00;;;;;26.68;43.76;101048.13;5019763;28;47865;-79
2022/07/24 09:52:18;;;;;;;;;10.75;8.75;;;;;26.75;43.49;101048.16;5019494;28;46280;-80
2022/07/24 09:54:48;;;;;;;;;12.00;11.00;;;;;26.82;42.78;101042.78;5018564;28;45870;-80
2022/07/24 09:57:17;;;;;;;;;9.00;8.50;;;;;26.88;42.84;101048.22;5016927;28;46128;-73
2022/07/24 09:59:46;;;;;;;;;13.50;11.75;;;;;26.93;42.89;101037.69;5019360;28;45831;-77
2022/07/24 10:02:14;;;;;;;;;9.75;9.75;;;;;26.98;42.95;101037.06;5001384;28;47303;-77
2022/07/24 10:04:41;;;;;;;;;9.50;9.00;;;;;27.03;43.13;101038.09;4994111;28;45920;-78
2022/07/24 10:07:09;;;;;;;;;7.25;7.25;;;;;27.09;42.73;101042.66;5015712;28;45776;-79
2022/07/24 10:09:35;;;;;;;;;7.00;6.75;;;;;27.14;42.69;101037.47;5016112;28;47310;-77
2022/07/24 10:12:03;;;;;;;;;9.00;8.25;;;;;27.20;42.66;101033.13;5019209;28;47131;-78
2022/07/24 10:14:29;;;;;;;;;11.50;11.00;;;;;27.27;41.90;101031.25;5014689;28;46896;-78
2022/07/24 10:17:05;;;;;;;;;9.50;9.00;;;;;27.34;42.12;101026.69;5002946;28;46056;-82
2022/07/24 10:19:39;;;;;;;;;10.25;9.00;;;;;27.38;41.67;101027.94;5003626;28;48391;-80
2022/07/24 10:22:10;;;;;;;;;10.50;10.50;;;;;27.44;42.07;101034.34;5021391;28;46155;-79
2022/07/24 10:24:49;;;;;;;;;11.00;10.25;;;;;27.51;41.52;101024.44;5002136;28;45842;-80
2022/07/24 10:27:36;;;;;;;;;11.00;10.75;;;;;27.57;41.51;101034.38;5015533;28;45684;-77
2022/07/24 10:30:05;;;;;;;;;12.25;10.25;;;;;27.63;41.01;101027.31;5017460;28;45589;-79
2022/07/24 10:32:33;;;;;;;;;10.00;9.00;;;;;27.69;40.86;101021.94;5020384;28;46789;-79
2022/07/24 10:35:05;;;;;;;;;12.00;8.75;;;;;27.76;40.50;101024.56;5018941;28;46416;-80
2022/07/24 10:37:43;;;;;;;;;11.00;10.00;;;;;27.81;40.76;101022.06;5022057;28;45840;-77
2022/07/24 10:40:35;;;;;;;;;11.50;10.00;;;;;27.87;40.31;101022.06;5012841;28;46121;-80
2022/07/24 10:43:09;;;;;;;;;9.00;9.00;;;;;27.92;39.96;101019.56;4908237;28;47074;-80
2022/07/24 10:45:37;;;;;;;;;10.00;9.00;;;;;27.97;40.62;101016.22;4940151;28;45849;-82
2022/07/24 10:48:23;;;;;;;;;10.75;10.00;;;;;28.04;39.91;101021.59;4938510;28;45775;-82
2022/07/24 10:51:01;;;;;;;;;10.25;9.75;;;;;28.11;40.27;101012.47;4938708;28;45738;-79
2022/07/24 10:53:28;;;;;;;;;8.25;8.25;;;;;28.16;39.97;101007.28;4929694;28;46391;-80
2022/07/24 10:56:15;;;;;;;;;11.00;11.00;;;;;28.23;39.36;101002.66;4927727;28;46964;-80
2022/07/24 10:59:00;;;;;;;;;8.50;8.00;;;;;28.28;39.14;101004.75;4930605;28;47250;-80
2022/07/24 11:01:44;;;;;;;;;7.25;7.00;;;;;28.31;38.17;100997.03;4926693;28;45968;-80
2022/07/24 11:04:18;;;;;;;;;8.25;8.25;;;;;28.36;38.62;100993.69;4929582;28;46068;-81
2022/07/24 11:06:51;;;;;;;;;8.00;7.00;;;;;28.40;38.60;100989.50;4928553;28;46709;-80
2022/07/24 11:09:19;;;;;;;;;8.00;8.00;;;;;28.43;38.01;100983.72;4930308;28;45703;-79
2022/07/24 11:11:50;;;;;;;;;7.50;7.00;;;;;28.50;38.03;100983.66;4924499;28;46643;-81